sensor_id;sensor_type;location;lat;lon;timestamp;P1;durP1;ratioP1;P2;durP2;ratioP2
20928;SDS011;21895;47.072;15.132;2023-06-24T00:00:56;3.05;;;1.42;;
20928;SDS011;21895;47.072;15.132;2023-06-24T00:03:22;3.03;;;1.77;;
20928;SDS011;21895;47.072;15.132;2023-06-24T00:05:49;3.03;;;1.62;;
20928;SDS011;21895;47.072;15.132;2023-06-24T00:08:16;5.12;;;1.95;;
20928;SDS011;21895;47.072;15.132;2023-06-24T00:10:45;3.80;;;1.48;;
20928;SDS011;21895;47.072;15.132;2023-06-24T00:13:13;2.20;;;1.40;;
20928;SDS011;21895;47.072;15.132;2023-06-24T00:15:41;3.08;;;1.33;;
20928;SDS011;21895;47.072;15.132;2023-06-24T00:18:11;3.53;;;1.50;;
20928;SDS011;21895;47.072;15.132;2023-06-24T00:20:38;4.35;;;1.60;;
20928;SDS011;21895;47.072;15.132;2023-06-24T00:23:06;2.92;;;1.42;;
20928;SDS011;21895;47.072;15.132;2023-06-24T00:25:33;1.55;;;1.30;;
20928;SDS011;21895;47.072;15.132;2023-06-24T00:27:59;1.50;;;1.17;;
20928;SDS011;21895;47.072;15.132;2023-06-24T00:30:26;4.00;;;1.50;;
20928;SDS011;21895;47.072;15.132;2023-06-24T00:32:55;3.37;;;1.52;;
20928;SDS011;21895;47.072;15.132;2023-06-24T00:35:21;2.65;;;1.50;;
20928;SDS011;21895;47.072;15.132;2023-06-24T00:37:48;3.08;;;1.20;;
20928;SDS011;21895;47.072;15.132;2023-06-24T00:40:14;1.90;;;1.05;;
20928;SDS011;21895;47.072;15.132;2023-06-24T00:42:45;4.72;;;1.50;;
20928;SDS011;21895;47.072;15.132;2023-06-24T00:45:12;3.75;;;1.10;;
20928;SDS011;21895;47.072;15.132;2023-06-24T00:47:39;1.73;;;1.27;;
20928;SDS011;21895;47.072;15.132;2023-06-24T00:50:07;2.00;;;0.98;;
20928;SDS011;21895;47.072;15.132;2023-06-24T00:52:34;1.62;;;1.23;;
20928;SDS011;21895;47.072;15.132;2023-06-24T00:55:03;1.67;;;0.90;;
20928;SDS011;21895;47.072;15.132;2023-06-24T00:57:30;1.75;;;1.45;;
20928;SDS011;21895;47.072;15.132;2023-06-24T00:59:57;2.67;;;1.05;;
20928;SDS011;21895;47.072;15.132;2023-06-24T01:02:25;1.75;;;1.30;;
20928;SDS011;21895;47.072;15.132;2023-06-24T01:04:53;2.80;;;1.58;;
20928;SDS011;21895;47.072;15.132;2023-06-24T01:07:20;1.85;;;1.20;;
20928;SDS011;21895;47.072;15.132;2023-06-24T01:09:47;1.37;;;0.80;;
20928;SDS011;21895;47.072;15.132;2023-06-24T01:12:14;2.05;;;1.10;;
20928;SDS011;21895;47.072;15.132;2023-06-24T01:14:41;2.40;;;1.02;;
20928;SDS011;21895;47.072;15.132;2023-06-24T01:17:10;4.37;;;1.20;;
20928;SDS011;21895;47.072;15.132;2023-06-24T01:20:04;1.27;;;0.95;;
20928;SDS011;21895;47.072;15.132;2023-06-24T01:23:08;2.30;;;1.20;;
20928;SDS011;21895;47.072;15.132;2023-06-24T01:26:19;1.15;;;0.93;;
20928;SDS011;21895;47.072;15.132;2023-06-24T01:32:16;1.27;;;0.60;;
20928;SDS011;21895;47.072;15.132;2023-06-24T01:34:59;4.70;;;0.98;;
20928;SDS011;21895;47.072;15.132;2023-06-24T01:37:40;1.15;;;0.93;;
20928;SDS011;21895;47.072;15.132;2023-06-24T01:40:33;4.97;;;1.10;;
20928;SDS011;21895;47.072;15.132;2023-06-24T01:43:08;1.17;;;0.62;;
20928;SDS011;21895;47.072;15.132;2023-06-24T01:45:45;0.80;;;0.73;;
20928;SDS011;21895;47.072;15.132;2023-06-24T01:48:22;1.70;;;0.88;;
20928;SDS011;21895;47.072;15.132;2023-06-24T01:51:07;1.80;;;0.88;;
20928;SDS011;21895;47.072;15.132;2023-06-24T01:53:44;0.85;;;0.52;;
20928;SDS011;21895;47.072;15.132;2023-06-24T01:57:15;2.28;;;0.93;;
20928;SDS011;21895;47.072;15.132;2023-06-24T01:59:46;1.10;;;0.85;;
20928;SDS011;21895;47.072;15.132;2023-06-24T02:02:17;3.03;;;0.93;;
20928;SDS011;21895;47.072;15.132;2023-06-24T02:04:45;1.30;;;0.90;;
20928;SDS011;21895;47.072;15.132;2023-06-24T02:07:16;0.80;;;0.73;;
20928;SDS011;21895;47.072;15.132;2023-06-24T02:09:45;0.60;;;0.60;;
20928;SDS011;21895;47.072;15.132;2023-06-24T02:12:13;0.62;;;0.52;;
20928;SDS011;21895;47.072;15.132;2023-06-24T02:14:41;1.08;;;0.80;;
20928;SDS011;21895;47.072;15.132;2023-06-24T02:17:08;1.15;;;0.80;;
20928;SDS011;21895;47.072;15.132;2023-06-24T02:19:37;1.98;;;0.80;;
20928;SDS011;21895;47.072;15.132;2023-06-24T02:22:05;2.35;;;0.80;;
20928;SDS011;21895;47.072;15.132;2023-06-24T02:24:36;0.75;;;0.70;;
20928;SDS011;21895;47.072;15.132;2023-06-24T02:27:06;0.62;;;0.60;;
20928;SDS011;21895;47.072;15.132;2023-06-24T02:29:34;2.10;;;0.60;;
20928;SDS011;21895;47.072;15.132;2023-06-24T02:32:03;0.60;;;0.60;;
20928;SDS011;21895;47.072;15.132;2023-06-24T02:34:31;0.90;;;0.60;;
20928;SDS011;21895;47.072;15.132;2023-06-24T02:36:58;0.50;;;0.47;;
20928;SDS011;21895;47.072;15.132;2023-06-24T02:39:25;1.92;;;0.52;;
20928;SDS011;21895;47.072;15.132;2023-06-24T02:41:51;0.62;;;0.60;;
20928;SDS011;21895;47.072;15.132;2023-06-24T02:44:18;0.80;;;0.77;;
20928;SDS011;21895;47.072;15.132;2023-06-24T02:46:45;1.15;;;0.88;;
20928;SDS011;21895;47.072;15.132;2023-06-24T02:49:13;1.77;;;0.62;;
20928;SDS011;21895;47.072;15.132;2023-06-24T02:51:43;0.77;;;0.50;;
20928;SDS011;21895;47.072;15.132;2023-06-24T02:54:10;3.40;;;0.80;;
20928;SDS011;21895;47.072;15.132;2023-06-24T02:56:38;0.68;;;0.60;;
20928;SDS011;21895;47.072;15.132;2023-06-24T02:59:07;0.40;;;0.40;;
20928;SDS011;21895;47.072;15.132;2023-06-24T03:01:35;0.97;;;0.40;;
20928;SDS011;21895;47.072;15.132;2023-06-24T03:04:04;1.00;;;0.70;;
20928;SDS011;21895;47.072;15.132;2023-06-24T03:06:31;0.70;;;0.50;;
20928;SDS011;21895;47.072;15.132;2023-06-24T03:09:02;1.83;;;0.80;;
20928;SDS011;21895;47.072;15.132;2023-06-24T03:11:29;2.65;;;0.85;;
20928;SDS011;21895;47.072;15.132;2023-06-24T03:13:55;0.60;;;0.50;;
20928;SDS011;21895;47.072;15.132;2023-06-24T03:16:22;0.82;;;0.57;;
20928;SDS011;21895;47.072;15.132;2023-06-24T03:18:49;0.60;;;0.60;;
20928;SDS011;21895;47.072;15.132;2023-06-24T03:21:15;0.68;;;0.68;;
20928;SDS011;21895;47.072;15.132;2023-06-24T03:23:42;0.52;;;0.52;;
20928;SDS011;21895;47.072;15.132;2023-06-24T03:26:08;1.00;;;0.75;;
20928;SDS011;21895;47.072;15.132;2023-06-24T03:28:35;0.55;;;0.47;;
20928;SDS011;21895;47.072;15.132;2023-06-24T03:31:03;1.27;;;0.60;;
20928;SDS011;21895;47.072;15.132;2023-06-24T03:33:30;1.02;;;0.73;;
20928;SDS011;21895;47.072;15.132;2023-06-24T03:35:57;0.65;;;0.60;;
20928;SDS011;21895;47.072;15.132;2023-06-24T03:38:23;4.57;;;0.62;;
20928;SDS011;21895;47.072;15.132;2023-06-24T03:40:50;0.87;;;0.57;;
20928;SDS011;21895;47.072;15.132;2023-06-24T03:43:16;0.55;;;0.55;;
20928;SDS011;21895;47.072;15.132;2023-06-24T03:45:43;2.00;;;1.10;;
20928;SDS011;21895;47.072;15.132;2023-06-24T03:48:11;1.33;;;0.68;;
20928;SDS011;21895;47.072;15.132;2023-06-24T03:50:38;2.55;;;0.95;;
20928;SDS011;21895;47.072;15.132;2023-06-24T03:53:05;0.60;;;0.60;;
20928;SDS011;21895;47.072;15.132;2023-06-24T03:55:32;1.12;;;0.85;;
20928;SDS011;21895;47.072;15.132;2023-06-24T03:57:59;6.05;;;0.80;;
20928;SDS011;21895;47.072;15.132;2023-06-24T04:00:25;0.62;;;0.62;;
20928;SDS011;21895;47.072;15.132;2023-06-24T04:02:52;0.85;;;0.60;;
20928;SDS011;21895;47.072;15.132;2023-06-24T04:05:19;1.08;;;0.80;;
20928;SDS011;21895;47.072;15.132;2023-06-24T04:07:47;1.20;;;0.50;;
20928;SDS011;21895;47.072;15.132;2023-06-24T04:10:16;1.33;;;0.75;;
20928;SDS011;21895;47.072;15.132;2023-06-24T04:12:44;1.73;;;0.60;;
20928;SDS011;21895;47.072;15.132;2023-06-24T04:15:13;1.35;;;0.80;;
20928;SDS011;21895;47.072;15.132;2023-06-24T04:17:40;0.73;;;0.55;;
20928;SDS011;21895;47.072;15.132;2023-06-24T04:20:07;0.85;;;0.52;;
20928;SDS011;21895;47.072;15.132;2023-06-24T04:22:37;0.55;;;0.55;;
20928;SDS011;21895;47.072;15.132;2023-06-24T04:25:06;1.55;;;0.73;;
20928;SDS011;21895;47.072;15.132;2023-06-24T04:27:33;0.73;;;0.70;;
20928;SDS011;21895;47.072;15.132;2023-06-24T04:30:02;2.17;;;0.88;;
20928;SDS011;21895;47.072;15.132;2023-06-24T04:32:29;1.27;;;0.55;;
20928;SDS011;21895;47.072;15.132;2023-06-24T04:34:57;0.98;;;0.62;;
20928;SDS011;21895;47.072;15.132;2023-06-24T04:37:27;1.17;;;0.80;;
20928;SDS011;21895;47.072;15.132;2023-06-24T04:39:54;1.42;;;0.52;;
20928;SDS011;21895;47.072;15.132;2023-06-24T04:42:20;2.08;;;0.60;;
20928;SDS011;21895;47.072;15.132;2023-06-24T04:44:48;0.98;;;0.60;;
20928;SDS011;21895;47.072;15.132;2023-06-24T04:47:17;1.55;;;0.73;;
20928;SDS011;21895;47.072;15.132;2023-06-24T04:49:44;1.02;;;0.73;;
20928;SDS011;21895;47.072;15.132;2023-06-24T04:52:11;0.30;;;0.30;;
20928;SDS011;21895;47.072;15.132;2023-06-24T04:54:38;1.70;;;0.65;;
20928;SDS011;21895;47.072;15.132;2023-06-24T04:57:05;1.37;;;0.80;;
20928;SDS011;21895;47.072;15.132;2023-06-24T04:59:35;1.65;;;0.68;;
20928;SDS011;21895;47.072;15.132;2023-06-24T05:02:03;3.95;;;0.62;;
20928;SDS011;21895;47.072;15.132;2023-06-24T05:04:30;0.80;;;0.60;;
20928;SDS011;21895;47.072;15.132;2023-06-24T05:06:56;0.88;;;0.80;;
20928;SDS011;21895;47.072;15.132;2023-06-24T05:09:23;0.62;;;0.60;;
20928;SDS011;21895;47.072;15.132;2023-06-24T05:11:50;1.10;;;0.62;;
20928;SDS011;21895;47.072;15.132;2023-06-24T05:14:16;2.58;;;0.57;;
20928;SDS011;21895;47.072;15.132;2023-06-24T05:16:43;2.53;;;0.70;;
20928;SDS011;21895;47.072;15.132;2023-06-24T05:19:10;2.50;;;0.77;;
20928;SDS011;21895;47.072;15.132;2023-06-24T05:21:37;1.55;;;0.73;;
20928;SDS011;21895;47.072;15.132;2023-06-24T05:24:04;1.58;;;0.77;;
20928;SDS011;21895;47.072;15.132;2023-06-24T05:26:31;1.20;;;0.70;;
20928;SDS011;21895;47.072;15.132;2023-06-24T05:28:57;0.77;;;0.50;;
20928;SDS011;21895;47.072;15.132;2023-06-24T05:31:24;0.68;;;0.60;;
20928;SDS011;21895;47.072;15.132;2023-06-24T05:33:50;5.68;;;0.98;;
20928;SDS011;21895;47.072;15.132;2023-06-24T05:36:17;1.08;;;0.75;;
20928;SDS011;21895;47.072;15.132;2023-06-24T05:38:43;0.55;;;0.55;;
20928;SDS011;21895;47.072;15.132;2023-06-24T05:41:10;0.60;;;0.57;;
20928;SDS011;21895;47.072;15.132;2023-06-24T05:43:37;1.10;;;0.80;;
20928;SDS011;21895;47.072;15.132;2023-06-24T05:46:05;0.62;;;0.60;;
20928;SDS011;21895;47.072;15.132;2023-06-24T05:48:32;0.50;;;0.50;;
20928;SDS011;21895;47.072;15.132;2023-06-24T05:50:58;1.10;;;0.80;;
20928;SDS011;21895;47.072;15.132;2023-06-24T05:53:25;0.75;;;0.70;;
20928;SDS011;21895;47.072;15.132;2023-06-24T05:55:51;1.73;;;0.80;;
20928;SDS011;21895;47.072;15.132;2023-06-24T05:58:18;1.02;;;0.68;;
20928;SDS011;21895;47.072;15.132;2023-06-24T06:00:45;2.28;;;0.77;;
20928;SDS011;21895;47.072;15.132;2023-06-24T06:03:11;0.50;;;0.45;;
20928;SDS011;21895;47.072;15.132;2023-06-24T06:05:38;1.00;;;0.82;;
20928;SDS011;21895;47.072;15.132;2023-06-24T06:08:04;2.65;;;0.52;;
20928;SDS011;21895;47.072;15.132;2023-06-24T06:10:31;1.70;;;0.62;;
20928;SDS011;21895;47.072;15.132;2023-06-24T06:12:57;10.23;;;0.90;;
20928;SDS011;21895;47.072;15.132;2023-06-24T06:15:24;0.50;;;0.50;;
20928;SDS011;21895;47.072;15.132;2023-06-24T06:17:51;0.82;;;0.68;;
20928;SDS011;21895;47.072;15.132;2023-06-24T06:20:18;0.62;;;0.57;;
20928;SDS011;21895;47.072;15.132;2023-06-24T06:22:44;0.60;;;0.60;;
20928;SDS011;21895;47.072;15.132;2023-06-24T06:25:11;0.85;;;0.60;;
20928;SDS011;21895;47.072;15.132;2023-06-24T06:27:37;1.30;;;0.70;;
20928;SDS011;21895;47.072;15.132;2023-06-24T06:30:04;0.80;;;0.52;;
20928;SDS011;21895;47.072;15.132;2023-06-24T06:32:32;0.70;;;0.50;;
20928;SDS011;21895;47.072;15.132;2023-06-24T06:34:59;1.02;;;0.60;;
20928;SDS011;21895;47.072;15.132;2023-06-24T06:37:25;0.50;;;0.50;;
20928;SDS011;21895;47.072;15.132;2023-06-24T06:39:52;1.65;;;0.85;;
20928;SDS011;21895;47.072;15.132;2023-06-24T06:42:19;0.82;;;0.77;;
20928;SDS011;21895;47.072;15.132;2023-06-24T06:44:45;1.10;;;0.93;;
20928;SDS011;21895;47.072;15.132;2023-06-24T06:47:12;0.77;;;0.70;;
20928;SDS011;21895;47.072;15.132;2023-06-24T06:49:38;0.95;;;0.77;;
20928;SDS011;21895;47.072;15.132;2023-06-24T06:52:05;0.88;;;0.70;;
20928;SDS011;21895;47.072;15.132;2023-06-24T06:54:32;0.75;;;0.75;;
20928;SDS011;21895;47.072;15.132;2023-06-24T06:57:02;1.60;;;1.00;;
20928;SDS011;21895;47.072;15.132;2023-06-24T06:59:30;2.28;;;0.95;;
20928;SDS011;21895;47.072;15.132;2023-06-24T07:01:57;4.82;;;0.80;;
20928;SDS011;21895;47.072;15.132;2023-06-24T07:04:24;0.52;;;0.45;;
20928;SDS011;21895;47.072;15.132;2023-06-24T07:06:50;1.10;;;0.60;;
20928;SDS011;21895;47.072;15.132;2023-06-24T07:09:17;0.88;;;0.68;;
20928;SDS011;21895;47.072;15.132;2023-06-24T07:11:45;2.78;;;1.55;;
20928;SDS011;21895;47.072;15.132;2023-06-24T07:14:11;0.85;;;0.70;;
20928;SDS011;21895;47.072;15.132;2023-06-24T07:16:38;1.42;;;1.00;;
20928;SDS011;21895;47.072;15.132;2023-06-24T07:19:04;1.35;;;1.02;;
20928;SDS011;21895;47.072;15.132;2023-06-24T07:21:31;1.37;;;1.00;;
20928;SDS011;21895;47.072;15.132;2023-06-24T07:23:57;1.25;;;0.80;;
20928;SDS011;21895;47.072;15.132;2023-06-24T07:26:24;1.80;;;0.82;;
20928;SDS011;21895;47.072;15.132;2023-06-24T07:28:56;5.55;;;1.45;;
20928;SDS011;21895;47.072;15.132;2023-06-24T07:31:33;1.67;;;0.90;;
20928;SDS011;21895;47.072;15.132;2023-06-24T07:34:01;2.35;;;0.55;;
20928;SDS011;21895;47.072;15.132;2023-06-24T07:36:28;0.50;;;0.50;;
20928;SDS011;21895;47.072;15.132;2023-06-24T07:38:54;0.35;;;0.30;;
20928;SDS011;21895;47.072;15.132;2023-06-24T07:41:21;0.45;;;0.43;;
20928;SDS011;21895;47.072;15.132;2023-06-24T07:43:47;0.85;;;0.47;;
20928;SDS011;21895;47.072;15.132;2023-06-24T07:46:14;0.57;;;0.30;;
20928;SDS011;21895;47.072;15.132;2023-06-24T07:48:40;1.10;;;0.60;;
20928;SDS011;21895;47.072;15.132;2023-06-24T07:51:07;1.00;;;0.52;;
20928;SDS011;21895;47.072;15.132;2023-06-24T07:53:34;1.20;;;0.50;;
20928;SDS011;21895;47.072;15.132;2023-06-24T07:56:01;0.90;;;0.32;;
20928;SDS011;21895;47.072;15.132;2023-06-24T07:58:27;0.55;;;0.50;;
20928;SDS011;21895;47.072;15.132;2023-06-24T08:00:54;2.55;;;1.35;;
20928;SDS011;21895;47.072;15.132;2023-06-24T08:03:21;0.20;;;0.17;;
20928;SDS011;21895;47.072;15.132;2023-06-24T08:05:48;0.00;;;0.00;;
20928;SDS011;21895;47.072;15.132;2023-06-24T08:08:15;0.10;;;0.10;;
20928;SDS011;21895;47.072;15.132;2023-06-24T08:10:45;0.05;;;0.05;;
20928;SDS011;21895;47.072;15.132;2023-06-24T08:13:11;0.00;;;0.00;;
20928;SDS011;21895;47.072;15.132;2023-06-24T08:15:38;0.00;;;0.00;;
20928;SDS011;21895;47.072;15.132;2023-06-24T08:18:07;0.00;;;0.00;;
20928;SDS011;21895;47.072;15.132;2023-06-24T08:20:34;0.00;;;0.00;;
20928;SDS011;21895;47.072;15.132;2023-06-24T08:23:01;0.10;;;0.10;;
20928;SDS011;21895;47.072;15.132;2023-06-24T08:25:27;0.00;;;0.00;;
20928;SDS011;21895;47.072;15.132;2023-06-24T08:27:54;0.45;;;0.17;;
20928;SDS011;21895;47.072;15.132;2023-06-24T08:30:20;0.00;;;0.00;;
20928;SDS011;21895;47.072;15.132;2023-06-24T08:32:47;0.10;;;0.10;;
20928;SDS011;21895;47.072;15.132;2023-06-24T08:35:14;0.10;;;0.10;;
20928;SDS011;21895;47.072;15.132;2023-06-24T08:37:40;0.00;;;0.00;;
20928;SDS011;21895;47.072;15.132;2023-06-24T08:40:07;0.03;;;0.00;;
20928;SDS011;21895;47.072;15.132;2023-06-24T08:42:34;0.00;;;0.00;;
20928;SDS011;21895;47.072;15.132;2023-06-24T08:45:00;0.10;;;0.10;;
20928;SDS011;21895;47.072;15.132;2023-06-24T08:47:27;0.00;;;0.00;;
20928;SDS011;21895;47.072;15.132;2023-06-24T08:50:05;0.00;;;0.00;;
20928;SDS011;21895;47.072;15.132;2023-06-24T08:52:38;0.10;;;0.10;;
20928;SDS011;21895;47.072;15.132;2023-06-24T08:55:11;0.32;;;0.10;;
20928;SDS011;21895;47.072;15.132;2023-06-24T08:57:42;0.00;;;0.00;;
20928;SDS011;21895;47.072;15.132;2023-06-24T09:00:09;0.03;;;0.03;;
20928;SDS011;21895;47.072;15.132;2023-06-24T09:02:39;0.20;;;0.20;;
20928;SDS011;21895;47.072;15.132;2023-06-24T09:05:06;0.20;;;0.20;;
20928;SDS011;21895;47.072;15.132;2023-06-24T09:07:33;0.08;;;0.08;;
20928;SDS011;21895;47.072;15.132;2023-06-24T09:10:00;0.10;;;0.10;;
20928;SDS011;21895;47.072;15.132;2023-06-24T09:12:27;0.20;;;0.10;;
20928;SDS011;21895;47.072;15.132;2023-06-24T09:14:58;0.30;;;0.20;;
20928;SDS011;21895;47.072;15.132;2023-06-24T09:17:24;0.20;;;0.10;;
20928;SDS011;21895;47.072;15.132;2023-06-24T09:19:53;0.60;;;0.17;;
20928;SDS011;21895;47.072;15.132;2023-06-24T09:22:30;0.17;;;0.17;;
20928;SDS011;21895;47.072;15.132;2023-06-24T09:24:56;0.10;;;0.10;;
20928;SDS011;21895;47.072;15.132;2023-06-24T09:27:30;0.10;;;0.10;;
20928;SDS011;21895;47.072;15.132;2023-06-24T09:29:58;0.05;;;0.05;;
20928;SDS011;21895;47.072;15.132;2023-06-24T09:32:31;0.22;;;0.10;;
20928;SDS011;21895;47.072;15.132;2023-06-24T09:34:57;0.10;;;0.10;;
20928;SDS011;21895;47.072;15.132;2023-06-24T09:37:29;0.00;;;0.00;;
20928;SDS011;21895;47.072;15.132;2023-06-24T09:39:57;0.00;;;0.00;;
20928;SDS011;21895;47.072;15.132;2023-06-24T09:42:25;0.10;;;0.10;;
20928;SDS011;21895;47.072;15.132;2023-06-24T09:44:54;0.10;;;0.10;;
20928;SDS011;21895;47.072;15.132;2023-06-24T09:47:21;0.10;;;0.10;;
20928;SDS011;21895;47.072;15.132;2023-06-24T09:49:53;0.00;;;0.00;;
20928;SDS011;21895;47.072;15.132;2023-06-24T09:52:20;0.10;;;0.10;;
20928;SDS011;21895;47.072;15.132;2023-06-24T09:54:50;0.00;;;0.00;;
20928;SDS011;21895;47.072;15.132;2023-06-24T09:57:18;0.10;;;0.10;;
20928;SDS011;21895;47.072;15.132;2023-06-24T09:59:57;0.08;;;0.08;;
20928;SDS011;21895;47.072;15.132;2023-06-24T10:02:24;0.00;;;0.00;;
20928;SDS011;21895;47.072;15.132;2023-06-24T10:04:51;0.03;;;0.03;;
20928;SDS011;21895;47.072;15.132;2023-06-24T10:07:19;0.00;;;0.00;;
20928;SDS011;21895;47.072;15.132;2023-06-24T10:09:47;0.10;;;0.10;;
20928;SDS011;21895;47.072;15.132;2023-06-24T10:12:14;0.00;;;0.00;;
20928;SDS011;21895;47.072;15.132;2023-06-24T10:14:41;0.10;;;0.10;;
20928;SDS011;21895;47.072;15.132;2023-06-24T10:17:07;0.50;;;0.10;;
20928;SDS011;21895;47.072;15.132;2023-06-24T10:19:37;0.00;;;0.00;;
20928;SDS011;21895;47.072;15.132;2023-06-24T10:22:08;0.00;;;0.00;;
20928;SDS011;21895;47.072;15.132;2023-06-24T10:24:37;0.00;;;0.00;;
20928;SDS011;21895;47.072;15.132;2023-06-24T10:27:14;0.00;;;0.00;;
20928;SDS011;21895;47.072;15.132;2023-06-24T10:29:50;0.00;;;0.00;;
20928;SDS011;21895;47.072;15.132;2023-06-24T10:32:19;0.10;;;0.10;;
20928;SDS011;21895;47.072;15.132;2023-06-24T10:34:57;0.52;;;0.30;;
20928;SDS011;21895;47.072;15.132;2023-06-24T10:37:30;0.03;;;0.03;;
20928;SDS011;21895;47.072;15.132;2023-06-24T10:39:59;0.10;;;0.10;;
20928;SDS011;21895;47.072;15.132;2023-06-24T10:42:30;0.10;;;0.10;;
20928;SDS011;21895;47.072;15.132;2023-06-24T10:45:00;0.00;;;0.00;;
20928;SDS011;21895;47.072;15.132;2023-06-24T10:48:01;0.00;;;0.00;;
20928;SDS011;21895;47.072;15.132;2023-06-24T10:50:29;0.00;;;0.00;;
20928;SDS011;21895;47.072;15.132;2023-06-24T10:52:55;0.22;;;0.10;;
20928;SDS011;21895;47.072;15.132;2023-06-24T10:55:23;0.00;;;0.00;;
20928;SDS011;21895;47.072;15.132;2023-06-24T10:57:54;0.10;;;0.10;;
20928;SDS011;21895;47.072;15.132;2023-06-24T11:00:38;0.10;;;0.10;;
20928;SDS011;21895;47.072;15.132;2023-06-24T11:03:09;0.10;;;0.10;;
20928;SDS011;21895;47.072;15.132;2023-06-24T11:05:44;0.00;;;0.00;;
20928;SDS011;21895;47.072;15.132;2023-06-24T11:08:14;0.73;;;0.00;;
20928;SDS011;21895;47.072;15.132;2023-06-24T11:10:47;0.10;;;0.10;;
20928;SDS011;21895;47.072;15.132;2023-06-24T11:13:14;0.20;;;0.20;;
20928;SDS011;21895;47.072;15.132;2023-06-24T11:15:41;0.45;;;0.15;;
20928;SDS011;21895;47.072;15.132;2023-06-24T11:18:11;0.10;;;0.10;;
20928;SDS011;21895;47.072;15.132;2023-06-24T11:20:37;0.10;;;0.00;;
20928;SDS011;21895;47.072;15.132;2023-06-24T11:23:08;0.00;;;0.00;;
20928;SDS011;21895;47.072;15.132;2023-06-24T11:25:42;0.00;;;0.00;;
20928;SDS011;21895;47.072;15.132;2023-06-24T11:28:18;0.00;;;0.00;;
20928;SDS011;21895;47.072;15.132;2023-06-24T11:30:48;0.10;;;0.10;;
20928;SDS011;21895;47.072;15.132;2023-06-24T11:33:26;0.03;;;0.03;;
20928;SDS011;21895;47.072;15.132;2023-06-24T11:35:55;0.08;;;0.08;;
20928;SDS011;21895;47.072;15.132;2023-06-24T11:38:21;0.10;;;0.10;;
20928;SDS011;21895;47.072;15.132;2023-06-24T11:40:48;0.13;;;0.10;;
20928;SDS011;21895;47.072;15.132;2023-06-24T11:43:15;0.10;;;0.10;;
20928;SDS011;21895;47.072;15.132;2023-06-24T11:45:41;0.22;;;0.10;;
20928;SDS011;21895;47.072;15.132;2023-06-24T11:48:08;0.10;;;0.10;;
20928;SDS011;21895;47.072;15.132;2023-06-24T11:50:35;0.10;;;0.10;;
20928;SDS011;21895;47.072;15.132;2023-06-24T11:53:03;0.20;;;0.13;;
20928;SDS011;21895;47.072;15.132;2023-06-24T11:55:30;0.10;;;0.10;;
20928;SDS011;21895;47.072;15.132;2023-06-24T11:58:01;0.00;;;0.00;;
20928;SDS011;21895;47.072;15.132;2023-06-24T12:00:34;0.10;;;0.10;;
20928;SDS011;21895;47.072;15.132;2023-06-24T12:03:05;0.08;;;0.08;;
20928;SDS011;21895;47.072;15.132;2023-06-24T12:05:37;0.15;;;0.10;;
20928;SDS011;21895;47.072;15.132;2023-06-24T12:08:10;0.00;;;0.00;;
20928;SDS011;21895;47.072;15.132;2023-06-24T12:10:39;0.10;;;0.10;;
20928;SDS011;21895;47.072;15.132;2023-06-24T12:13:06;0.10;;;0.10;;
20928;SDS011;21895;47.072;15.132;2023-06-24T12:15:34;0.10;;;0.10;;
20928;SDS011;21895;47.072;15.132;2023-06-24T12:18:01;0.10;;;0.10;;
20928;SDS011;21895;47.072;15.132;2023-06-24T12:20:29;0.10;;;0.10;;
20928;SDS011;21895;47.072;15.132;2023-06-24T12:23:00;0.10;;;0.10;;
20928;SDS011;21895;47.072;15.132;2023-06-24T12:25:26;0.10;;;0.10;;
20928;SDS011;21895;47.072;15.132;2023-06-24T12:27:53;0.20;;;0.20;;
20928;SDS011;21895;47.072;15.132;2023-06-24T12:30:20;0.10;;;0.10;;
20928;SDS011;21895;47.072;15.132;2023-06-24T12:32:49;0.03;;;0.03;;
20928;SDS011;21895;47.072;15.132;2023-06-24T12:35:17;0.10;;;0.10;;
20928;SDS011;21895;47.072;15.132;2023-06-24T12:37:43;0.10;;;0.10;;
20928;SDS011;21895;47.072;15.132;2023-06-24T12:40:10;0.20;;;0.20;;
20928;SDS011;21895;47.072;15.132;2023-06-24T12:42:37;0.17;;;0.17;;
20928;SDS011;21895;47.072;15.132;2023-06-24T12:45:04;0.10;;;0.10;;
20928;SDS011;21895;47.072;15.132;2023-06-24T12:47:32;0.20;;;0.20;;
20928;SDS011;21895;47.072;15.132;2023-06-24T12:49:58;0.28;;;0.28;;
20928;SDS011;21895;47.072;15.132;2023-06-24T12:52:25;0.20;;;0.20;;
20928;SDS011;21895;47.072;15.132;2023-06-24T12:54:51;0.75;;;0.13;;
20928;SDS011;21895;47.072;15.132;2023-06-24T12:57:18;0.40;;;0.30;;
20928;SDS011;21895;47.072;15.132;2023-06-24T12:59:44;0.20;;;0.20;;
20928;SDS011;21895;47.072;15.132;2023-06-24T13:02:11;0.10;;;0.10;;
20928;SDS011;21895;47.072;15.132;2023-06-24T13:04:38;0.10;;;0.10;;
20928;SDS011;21895;47.072;15.132;2023-06-24T13:07:04;0.20;;;0.20;;
20928;SDS011;21895;47.072;15.132;2023-06-24T13:09:32;0.20;;;0.20;;
20928;SDS011;21895;47.072;15.132;2023-06-24T13:11:59;0.20;;;0.20;;
20928;SDS011;21895;47.072;15.132;2023-06-24T13:14:25;0.25;;;0.25;;
20928;SDS011;21895;47.072;15.132;2023-06-24T13:16:54;0.77;;;0.20;;
20928;SDS011;21895;47.072;15.132;2023-06-24T13:19:21;0.40;;;0.35;;
20928;SDS011;21895;47.072;15.132;2023-06-24T13:21:48;0.52;;;0.30;;
20928;SDS011;21895;47.072;15.132;2023-06-24T13:24:14;0.15;;;0.15;;
20928;SDS011;21895;47.072;15.132;2023-06-24T13:26:41;0.35;;;0.35;;
20928;SDS011;21895;47.072;15.132;2023-06-24T13:29:07;0.25;;;0.25;;
20928;SDS011;21895;47.072;15.132;2023-06-24T13:31:34;0.30;;;0.25;;
20928;SDS011;21895;47.072;15.132;2023-06-24T13:34:01;0.28;;;0.28;;
20928;SDS011;21895;47.072;15.132;2023-06-24T13:36:33;0.40;;;0.40;;
20928;SDS011;21895;47.072;15.132;2023-06-24T13:39:02;0.30;;;0.30;;
20928;SDS011;21895;47.072;15.132;2023-06-24T13:41:34;0.50;;;0.37;;
20928;SDS011;21895;47.072;15.132;2023-06-24T13:44:01;0.73;;;0.50;;
20928;SDS011;21895;47.072;15.132;2023-06-24T13:46:29;0.25;;;0.25;;
20928;SDS011;21895;47.072;15.132;2023-06-24T13:48:57;0.30;;;0.30;;
20928;SDS011;21895;47.072;15.132;2023-06-24T13:51:26;0.40;;;0.40;;
20928;SDS011;21895;47.072;15.132;2023-06-24T13:53:53;0.85;;;0.25;;
20928;SDS011;21895;47.072;15.132;2023-06-24T13:56:21;0.30;;;0.30;;
20928;SDS011;21895;47.072;15.132;2023-06-24T13:58:49;0.47;;;0.40;;
20928;SDS011;21895;47.072;15.132;2023-06-24T14:01:17;0.55;;;0.40;;
20928;SDS011;21895;47.072;15.132;2023-06-24T14:03:43;1.30;;;0.50;;
20928;SDS011;21895;47.072;15.132;2023-06-24T14:06:11;0.40;;;0.40;;
20928;SDS011;21895;47.072;15.132;2023-06-24T14:08:41;0.30;;;0.30;;
20928;SDS011;21895;47.072;15.132;2023-06-24T14:11:08;0.40;;;0.40;;
20928;SDS011;21895;47.072;15.132;2023-06-24T14:13:35;0.40;;;0.40;;
20928;SDS011;21895;47.072;15.132;2023-06-24T14:16:02;0.55;;;0.30;;
20928;SDS011;21895;47.072;15.132;2023-06-24T14:18:30;0.30;;;0.30;;
20928;SDS011;21895;47.072;15.132;2023-06-24T14:21:01;0.30;;;0.30;;
20928;SDS011;21895;47.072;15.132;2023-06-24T14:23:30;0.20;;;0.20;;
20928;SDS011;21895;47.072;15.132;2023-06-24T14:25:57;0.30;;;0.30;;
20928;SDS011;21895;47.072;15.132;2023-06-24T14:28:25;0.43;;;0.30;;
20928;SDS011;21895;47.072;15.132;2023-06-24T14:30:52;0.20;;;0.20;;
20928;SDS011;21895;47.072;15.132;2023-06-24T14:33:19;0.45;;;0.45;;
20928;SDS011;21895;47.072;15.132;2023-06-24T14:35:46;0.40;;;0.40;;
20928;SDS011;21895;47.072;15.132;2023-06-24T14:38:12;0.30;;;0.30;;
20928;SDS011;21895;47.072;15.132;2023-06-24T14:40:39;0.40;;;0.40;;
20928;SDS011;21895;47.072;15.132;2023-06-24T14:43:05;0.35;;;0.30;;
20928;SDS011;21895;47.072;15.132;2023-06-24T14:45:32;0.30;;;0.30;;